Time;durP1;ratioP1;P1;durP2;ratioP2;P2;SDS_P1;SDS_P2;PMS_P1;PMS_P2;Temp;Humidity;BMP_temperature;BMP_pressure;BME280_temperature;BME280_humidity;BME280_pressure;Samples;Min_cycle;Max_cycle;Signal;HPM_P1;HPM_P2
2020/12/25 00:01:22;;;;;;;5.82;0.93;;;;;;;4.13;63.17;102224.03;4440120;32;20354;-75
2020/12/25 00:03:47;;;;;;;3.53;0.95;;;;;;;4.11;62.91;102221.62;4441709;32;20561;-74
2020/12/25 00:06:13;;;;;;;4.40;1.10;;;;;;;4.06;63.18;102224.66;4436872;32;20090;-74
2020/12/25 00:08:39;;;;;;;3.60;1.08;;;;;;;4.12;63.12;102231.59;4441787;32;20045;-74
2020/12/25 00:11:05;;;;;;;6.20;1.20;;;;;;;4.13;63.12;102232.41;4442120;32;20391;-73
2020/12/25 00:13:31;;;;;;;7.93;1.10;;;;;;;4.11;63.14;102238.31;4433575;32;20064;-74
2020/12/25 00:15:57;;;;;;;7.20;0.93;;;;;;;4.09;63.24;102242.66;4423473;32;20387;-72
2020/12/25 00:18:23;;;;;;;11.43;1.62;;;;;;;3.99;63.39;102241.19;4429976;32;20077;-75
2020/12/25 00:20:53;;;;;;;5.75;1.10;;;;;;;4.01;63.24;102240.84;4430946;32;20077;-73
2020/12/25 00:23:18;;;;;;;7.78;1.20;;;;;;;4.01;63.11;102241.66;4431748;32;20033;-74
2020/12/25 00:25:44;;;;;;;2.92;1.05;;;;;;;3.96;63.88;102246.69;4430706;32;20456;-75
2020/12/25 00:28:10;;;;;;;5.20;1.20;;;;;;;3.94;63.61;102252.62;4431222;32;20088;-73
2020/12/25 00:30:36;;;;;;;9.27;1.48;;;;;;;3.89;63.27;102254.84;4427427;32;20560;-75
2020/12/25 00:33:01;;;;;;;4.37;0.98;;;;;;;3.87;63.44;102251.63;4445450;27;20082;-72
2020/12/25 00:35:27;;;;;;;8.27;1.10;;;;;;;3.87;63.73;102255.19;4421112;32;20118;-72
2020/12/25 00:37:53;;;;;;;4.72;1.02;;;;;;;3.85;63.74;102265.91;4424469;32;20077;-74
2020/12/25 00:40:18;;;;;;;5.07;0.98;;;;;;;3.82;63.73;102263.81;4423287;32;20484;-74
2020/12/25 00:42:44;;;;;;;8.07;0.80;;;;;;;3.80;63.73;102263.34;4422322;32;20064;-74
2020/12/25 00:45:09;;;;;;;5.50;1.05;;;;;;;3.82;63.80;102249.91;4413315;32;20093;-74
2020/12/25 00:47:35;;;;;;;2.85;0.93;;;;;;;3.83;63.59;102262.66;4423875;32;20026;-75
2020/12/25 00:50:01;;;;;;;4.28;0.95;;;;;;;3.78;63.38;102265.69;4424602;32;20029;-74
2020/12/25 00:52:26;;;;;;;5.80;0.80;;;;;;;3.71;63.45;102253.53;4421536;32;20030;-74
2020/12/25 00:54:52;;;;;;;4.45;0.85;;;;;;;3.73;63.53;102262.34;4425831;32;20170;-74
2020/12/25 00:57:18;;;;;;;4.12;1.00;;;;;;;3.69;63.66;102261.44;4425632;32;20081;-74
2020/12/25 00:59:44;;;;;;;2.42;0.62;;;;;;;3.73;63.63;102263.16;4424304;32;20456;-74
2020/12/25 01:02:11;;;;;;;5.10;0.90;;;;;;;3.72;63.65;102263.53;4424388;32;20030;-74
2020/12/25 01:04:37;;;;;;;5.22;1.00;;;;;;;3.68;63.21;102260.63;4422158;32;20042;-74
2020/12/25 01:07:05;;;;;;;4.55;0.50;;;;;;;3.70;63.39;102266.66;4426152;32;20488;-74
2020/12/25 01:09:31;;;;;;;3.00;0.73;;;;;;;3.75;63.46;102265.59;4424579;32;20430;-74
2020/12/25 01:12:01;;;;;;;7.22;0.60;;;;;;;3.71;63.27;102267.44;4429092;32;20137;-74
2020/12/25 01:14:28;;;;;;;4.78;0.90;;;;;;;3.73;63.19;102270.69;4422646;32;20044;-74
2020/12/25 01:16:55;;;;;;;4.97;0.75;;;;;;;3.71;63.13;102254.34;4425351;32;20093;-74
2020/12/25 01:19:25;;;;;;;4.20;0.77;;;;;;;3.69;62.87;102269.81;4420431;32;20034;-72
2020/12/25 01:21:51;;;;;;;6.75;0.90;;;;;;;3.75;63.07;102262.81;4424469;32;20061;-73
2020/12/25 01:24:16;;;;;;;4.18;1.02;;;;;;;3.78;62.83;102256.53;4420219;32;20385;-73
2020/12/25 01:26:43;;;;;;;4.50;0.73;;;;;;;3.75;62.76;102254.47;4422020;32;20073;-73
2020/12/25 01:29:08;;;;;;;5.78;0.73;;;;;;;3.78;62.52;102257.31;4421584;32;20204;-73
2020/12/25 01:31:34;;;;;;;6.90;1.12;;;;;;;3.76;62.42;102258.84;4423329;32;20569;-73
2020/12/25 01:34:00;;;;;;;7.07;0.88;;;;;;;3.76;62.56;102261.63;4426927;32;20140;-74
2020/12/25 01:36:25;;;;;;;2.90;0.90;;;;;;;3.66;62.77;102264.94;4426472;32;20056;-74
2020/12/25 01:38:52;;;;;;;2.22;0.60;;;;;;;3.64;62.74;102265.28;4427303;32;20072;-74
2020/12/25 01:41:17;;;;;;;4.87;0.55;;;;;;;3.71;62.84;102267.44;4423869;32;20033;-74
2020/12/25 01:43:43;;;;;;;8.25;0.98;;;;;;;3.65;62.97;102269.69;4422313;32;20070;-74
2020/12/25 01:46:10;;;;;;;3.40;0.80;;;;;;;3.60;62.62;102267.19;4426251;32;20074;-74
2020/12/25 01:48:37;;;;;;;4.47;0.60;;;;;;;3.66;62.69;102271.34;4424300;32;20034;-74
2020/12/25 01:51:04;;;;;;;8.15;0.70;;;;;;;3.59;62.37;102265.53;4425951;32;20116;-73
2020/12/25 01:53:32;;;;;;;2.08;0.77;;;;;;;3.65;62.96;102269.69;4409549;32;20332;-73
2020/12/25 01:55:59;;;;;;;2.22;0.60;;;;;;;3.65;62.88;102274.47;4423128;32;20038;-74
2020/12/25 01:58:25;;;;;;;4.43;1.02;;;;;;;3.67;62.51;102275.72;4411760;32;20053;-73
2020/12/25 02:00:52;;;;;;;2.83;0.60;;;;;;;3.67;62.64;102280.47;4426826;32;20092;-74
2020/12/25 02:03:18;;;;;;;7.43;0.93;;;;;;;3.66;62.24;102279.69;4424696;32;20056;-74
2020/12/25 02:05:45;;;;;;;6.47;1.10;;;;;;;3.65;62.70;102288.38;4410167;32;20374;-74
2020/12/25 02:08:13;;;;;;;5.72;0.70;;;;;;;3.56;62.87;102285.72;4409349;32;20064;-74
2020/12/25 02:10:39;;;;;;;7.28;0.98;;;;;;;3.52;62.28;102286.78;4424038;32;20041;-74
2020/12/25 02:13:06;;;;;;;10.20;0.77;;;;;;;3.57;62.30;102287.37;4409604;32;20041;-74
2020/12/25 02:15:32;;;;;;;5.32;1.90;;;;;;;3.53;62.42;102271.72;4409913;32;20393;-74
2020/12/25 02:17:58;;;;;;;5.00;0.98;;;;;;;3.51;63.04;102274.88;4420671;32;20398;-74
2020/12/25 02:20:24;;;;;;;5.15;0.73;;;;;;;3.55;62.69;102266.59;4427097;32;20658;-73
2020/12/25 02:22:50;;;;;;;4.25;0.80;;;;;;;3.57;62.66;102267.06;4423707;32;20459;-73
2020/12/25 02:25:16;;;;;;;6.70;0.73;;;;;;;3.58;62.62;102263.94;4422896;32;20061;-74
2020/12/25 02:27:41;;;;;;;7.15;0.60;;;;;;;3.51;62.20;102260.13;4421977;32;20078;-74
2020/12/25 02:30:07;;;;;;;2.15;0.60;;;;;;;3.56;62.36;102259.91;4424529;32;20096;-73
2020/12/25 02:32:35;;;;;;;4.22;0.73;;;;;;;3.53;63.05;102257.81;4423999;32;20057;-74
2020/12/25 02:35:02;;;;;;;3.37;0.50;;;;;;;3.60;62.61;102252.44;4409895;32;20037;-74
2020/12/25 02:37:28;;;;;;;5.72;0.70;;;;;;;3.52;62.68;102251.44;4419480;32;20030;-74
2020/12/25 02:39:53;;;;;;;10.10;0.80;;;;;;;3.50;62.66;102248.19;4422432;32;20112;-74
2020/12/25 02:42:19;;;;;;;4.30;0.70;;;;;;;3.42;62.38;102249.16;4422626;32;20098;-74
2020/12/25 02:44:45;;;;;;;5.15;0.55;;;;;;;3.37;62.33;102248.56;4423427;32;20512;-74
2020/12/25 02:47:12;;;;;;;6.20;0.50;;;;;;;3.43;62.30;102247.16;4421375;32;20074;-74
2020/12/25 02:49:38;;;;;;;5.60;0.88;;;;;;;3.46;62.65;102250.06;4425886;32;20825;-74
2020/12/25 02:52:04;;;;;;;1.95;0.70;;;;;;;3.30;62.67;102249.19;4423422;32;20077;-74
2020/12/25 02:54:30;;;;;;;3.22;0.50;;;;;;;3.41;62.64;102241.94;4423900;32;20121;-73
2020/12/25 02:56:57;;;;;;;2.92;0.50;;;;;;;3.40;62.37;102247.88;4423992;32;21107;-74
2020/12/25 02:59:23;;;;;;;3.62;0.50;;;;;;;3.38;62.44;102247.44;4424973;32;20506;-74
2020/12/25 03:01:50;;;;;;;5.05;0.62;;;;;;;3.47;61.94;102239.75;4426874;32;20046;-74
2020/12/25 03:04:17;;;;;;;2.20;0.40;;;;;;;3.47;62.04;102234.97;4424816;32;20068;-74
2020/12/25 03:06:43;;;;;;;3.53;0.57;;;;;;;3.49;61.87;102249.34;4422935;32;20445;-73
2020/12/25 03:09:09;;;;;;;4.07;0.75;;;;;;;3.51;62.04;102269.31;4421941;32;20037;-74
2020/12/25 03:11:35;;;;;;;7.10;0.57;;;;;;;3.53;62.16;102264.16;4423068;32;20056;-74
2020/12/25 03:14:00;;;;;;;6.18;0.80;;;;;;;3.48;62.23;102270.00;4426136;32;20073;-73
2020/12/25 03:16:26;;;;;;;3.40;1.00;;;;;;;3.46;62.08;102269.53;4422195;32;20096;-74
2020/12/25 03:18:52;;;;;;;2.78;0.70;;;;;;;3.39;61.96;102261.00;4421888;32;20026;-74
2020/12/25 03:21:17;;;;;;;2.90;0.50;;;;;;;3.40;61.65;102262.59;4422369;32;20077;-74
2020/12/25 03:23:43;;;;;;;1.77;0.52;;;;;;;3.32;61.94;102260.75;4424359;32;20069;-74
2020/12/25 03:26:08;;;;;;;4.68;0.40;;;;;;;3.27;62.52;102266.59;4422944;32;20041;-74
2020/12/25 03:28:34;;;;;;;2.60;0.52;;;;;;;3.41;62.13;102269.00;4421724;32;20480;-74
2020/12/25 03:31:00;;;;;;;4.70;0.50;;;;;;;3.37;62.01;102279.19;4425420;32;20052;-74
2020/12/25 03:33:25;;;;;;;1.65;0.40;;;;;;;3.44;61.96;102277.41;4424648;32;20071;-74
2020/12/25 03:35:51;;;;;;;6.10;0.62;;;;;;;3.34;61.79;102288.25;4421852;32;20108;-74
2020/12/25 03:38:18;;;;;;;1.92;0.52;;;;;;;3.43;61.53;102286.12;4420928;32;20508;-74
2020/12/25 03:40:44;;;;;;;3.72;0.50;;;;;;;3.43;61.53;102278.59;4424067;32;20115;-73
2020/12/25 03:43:09;;;;;;;4.35;0.60;;;;;;;3.37;61.79;102271.66;4421392;32;20513;-73
2020/12/25 03:45:35;;;;;;;5.10;0.62;;;;;;;3.39;62.00;102266.56;4421992;32;20026;-74
2020/12/25 03:48:01;;;;;;;6.35;0.37;;;;;;;3.42;61.93;102271.41;4424072;32;20042;-74
2020/12/25 03:50:28;;;;;;;3.37;0.50;;;;;;;3.47;61.77;102264.78;4425973;32;20060;-74
2020/12/25 03:52:53;;;;;;;2.85;0.30;;;;;;;3.50;62.02;102255.75;4411718;32;20405;-73
2020/12/25 03:55:19;;;;;;;2.20;0.40;;;;;;;3.41;61.98;102243.94;4410125;32;20029;-74
2020/12/25 03:57:45;;;;;;;3.83;0.70;;;;;;;3.38;61.85;102250.22;4421255;32;20062;-74
2020/12/25 04:00:11;;;;;;;1.58;0.32;;;;;;;3.33;61.81;102250.47;4422727;32;20479;-74
2020/12/25 04:02:36;;;;;;;3.58;1.42;;;;;;;3.37;62.04;102254.13;4422294;32;20675;-74
2020/12/25 04:05:02;;;;;;;3.67;0.57;;;;;;;3.22;61.68;102254.91;4425980;32;20382;-73
2020/12/25 04:07:28;;;;;;;5.57;0.60;;;;;;;3.25;61.59;102254.22;4426796;32;20070;-73
2020/12/25 04:09:53;;;;;;;6.65;0.40;;;;;;;3.06;62.34;102254.00;4424679;32;20128;-74
2020/12/25 04:12:19;;;;;;;4.25;0.45;;;;;;;3.23;62.41;102264.88;4427157;32;20143;-74
2020/12/25 04:14:45;;;;;;;3.70;0.43;;;;;;;3.22;62.05;102275.19;4423866;32;20072;-73
2020/12/25 04:17:10;;;;;;;1.80;0.60;;;;;;;3.23;62.05;102264.88;4425265;32;20102;-73
2020/12/25 04:19:36;;;;;;;1.52;0.37;;;;;;;3.21;61.87;102264.41;4425779;32;20034;-73
2020/12/25 04:22:02;;;;;;;1.92;0.60;;;;;;;3.23;61.96;102273.22;4424723;32;20482;-73
2020/12/25 04:24:27;;;;;;;5.20;0.50;;;;;;;3.31;61.24;102270.28;4424532;32;20025;-73
2020/12/25 04:26:53;;;;;;;3.12;0.47;;;;;;;3.27;61.42;102266.59;4425913;32;20081;-74
2020/12/25 04:29:19;;;;;;;2.53;0.70;;;;;;;3.37;61.44;102259.72;4426654;32;20121;-73
2020/12/25 04:31:44;;;;;;;2.33;0.60;;;;;;;3.36;61.61;102267.25;4427666;32;20439;-74
2020/12/25 04:34:10;;;;;;;1.87;0.45;;;;;;;3.38;61.52;102272.47;4424755;32;20136;-73
2020/12/25 04:36:36;;;;;;;2.80;0.60;;;;;;;3.41;61.51;102275.34;4424335;32;20429;-73
2020/12/25 04:39:04;;;;;;;3.42;0.43;;;;;;;3.38;61.62;102286.38;4424577;32;20100;-73
2020/12/25 04:41:31;;;;;;;4.25;0.52;;;;;;;3.41;61.83;102283.69;4424250;32;20033;-74
2020/12/25 04:43:59;;;;;;;2.33;0.45;;;;;;;3.33;61.47;102292.19;4427062;32;20034;-74
2020/12/25 04:46:25;;;;;;;4.80;0.65;;;;;;;3.36;62.07;102283.12;4424537;32;20134;-73
2020/12/25 04:48:51;;;;;;;5.30;0.90;;;;;;;3.28;62.07;102282.13;4425012;32;20407;-73
2020/12/25 04:51:17;;;;;;;4.78;0.37;;;;;;;3.21;61.86;102279.12;4429996;32;20045;-74
2020/12/25 04:53:47;;;;;;;3.40;0.50;;;;;;;3.25;62.08;102282.81;4426707;32;20026;-74
2020/12/25 04:56:13;;;;;;;2.65;0.65;;;;;;;3.32;61.84;102287.78;4421220;32;20099;-73
2020/12/25 04:58:39;;;;;;;6.75;1.27;;;;;;;3.31;62.09;102291.72;4425290;32;20342;-73
2020/12/25 05:01:07;;;;;;;4.82;0.40;;;;;;;3.24;62.86;102299.88;4421409;32;20034;-74
2020/12/25 05:03:35;;;;;;;3.17;0.52;;;;;;;3.20;62.64;102299.78;4425949;32;20529;-74
2020/12/25 05:08:44;;;;;;;2.45;0.40;;;;;;;3.67;61.47;102308.31;3982238;32;15022507;-74
2020/12/25 05:11:12;;;;;;;3.20;0.47;;;;;;;3.67;61.47;102308.31;4443453;32;20094;-72
2020/12/25 05:13:45;;;;;;;3.65;0.37;;;;;;;3.25;62.14;102304.28;4434867;32;20141;-72
2020/12/25 05:16:12;;;;;;;3.15;0.40;;;;;;;3.21;62.42;102306.94;4440777;32;20108;-72
2020/12/25 05:18:41;;;;;;;1.70;0.40;;;;;;;3.19;62.74;102303.69;4441020;32;20170;-72
2020/12/25 05:21:10;;;;;;;2.80;0.30;;;;;;;3.15;62.84;102308.34;4444307;32;20148;-72
2020/12/25 05:23:38;;;;;;;2.80;0.90;;;;;;;3.15;63.26;102308.34;4441407;32;20355;-74
2020/12/25 05:26:06;;;;;;;2.47;0.40;;;;;;;3.07;63.76;102312.06;4443039;32;20053;-75
2020/12/25 05:28:36;;;;;;;2.85;0.60;;;;;;;2.99;64.30;102307.47;4440578;32;20364;-74
2020/12/25 05:31:03;;;;;;;3.08;0.50;;;;;;;3.01;63.49;102304.31;4440084;32;20037;-75
2020/12/25 05:33:30;;;;;;;3.08;0.43;;;;;;;3.00;63.11;102299.91;4437101;32;20158;-72
2020/12/25 05:35:56;;;;;;;6.68;0.80;;;;;;;2.97;63.81;102300.59;4424070;32;20194;-73
2020/12/25 05:38:22;;;;;;;1.52;0.37;;;;;;;2.91;64.33;102291.69;4425924;32;20046;-73
2020/12/25 05:40:49;;;;;;;6.93;0.82;;;;;;;2.94;63.87;102304.06;4425041;32;20041;-73
2020/12/25 05:43:17;;;;;;;3.95;0.55;;;;;;;2.89;64.01;102302.38;4425359;32;20097;-73
2020/12/25 05:45:43;;;;;;;4.00;0.40;;;;;;;2.97;63.34;102297.81;4425580;32;20033;-74
2020/12/25 05:48:10;;;;;;;5.28;0.50;;;;;;;2.94;63.41;102302.13;4424621;32;20432;-72
2020/12/25 05:50:37;;;;;;;3.55;0.50;;;;;;;2.94;63.24;102304.06;4424540;32;20088;-73
2020/12/25 05:53:03;;;;;;;7.43;1.00;;;;;;;3.01;63.24;102310.69;4424878;32;20058;-73
2020/12/25 05:55:29;;;;;;;1.73;0.40;;;;;;;3.02;63.47;102312.31;4424521;32;20403;-73
2020/12/25 05:57:56;;;;;;;6.20;0.98;;;;;;;3.05;63.52;102306.06;4423555;32;20481;-72
2020/12/25 06:00:24;;;;;;;5.57;0.80;;;;;;;2.97;63.09;102301.41;4422810;32;20407;-73
2020/12/25 06:02:52;;;;;;;5.00;1.23;;;;;;;3.02;63.69;102303.16;4424761;32;20070;-73
2020/12/25 06:05:19;;;;;;;7.05;0.82;;;;;;;2.99;63.86;102306.62;4425717;32;20034;-73
2020/12/25 06:07:55;;;;;;;2.00;0.62;;;;;;;2.99;63.70;102312.19;4425106;32;20052;-72
2020/12/25 06:12:58;;;;;;;2.78;0.50;;;;;;;3.32;62.79;102318.00;3986333;32;15025737;-74
2020/12/25 06:18:39;;;;;;;1.62;0.52;;;;;;;3.42;62.59;102313.16;3983528;32;15023445;-75
2020/12/25 06:21:44;;;;;;;2.00;0.40;;;;;;;3.42;62.59;102313.16;4440680;32;20112;-74
2020/12/25 06:24:14;;;;;;;3.20;0.77;;;;;;;2.88;63.72;102308.28;4440678;32;20029;-74
2020/12/25 06:26:40;;;;;;;4.32;0.80;;;;;;;2.88;64.03;102311.84;4440450;32;20085;-72
2020/12/25 06:29:06;;;;;;;3.15;0.62;;;;;;;2.72;65.18;102305.38;4441946;32;20134;-72
2020/12/25 06:31:36;;;;;;;4.57;0.77;;;;;;;2.74;65.41;102302.25;4442259;32;20038;-72
2020/12/25 06:34:04;;;;;;;4.80;1.35;;;;;;;2.72;65.66;102302.59;4432166;32;20420;-73
2020/12/25 06:36:30;;;;;;;2.03;0.90;;;;;;;2.62;66.09;102307.81;4423307;32;20064;-73
2020/12/25 06:38:58;;;;;;;3.78;0.73;;;;;;;2.63;65.68;102301.09;4420017;32;20026;-73
2020/12/25 06:41:26;;;;;;;6.12;1.12;;;;;;;2.75;65.44;102306.66;4422035;32;20128;-73
2020/12/25 06:43:54;;;;;;;3.72;0.70;;;;;;;2.69;65.67;102310.81;4419124;32;20022;-72
2020/12/25 06:46:33;;;;;;;4.07;0.90;;;;;;;2.69;65.60;102300.50;4419528;32;20058;-73
2020/12/25 06:49:03;;;;;;;5.07;0.82;;;;;;;2.69;65.75;102305.25;4418401;32;20084;-72
2020/12/25 06:51:29;;;;;;;5.82;1.15;;;;;;;2.66;65.81;102297.59;4421433;32;20057;-73
2020/12/25 06:53:56;;;;;;;4.18;0.65;;;;;;;2.60;65.15;102299.81;4423228;32;20089;-73
2020/12/25 06:56:22;;;;;;;2.62;0.80;;;;;;;2.64;65.29;102306.28;4420226;32;20038;-73
2020/12/25 07:01:42;;;;;;;6.62;1.45;;;;;;;3.11;64.53;102323.31;3957990;32;15724571;-73
2020/12/25 07:04:22;;;;;;;4.12;0.68;;;;;;;3.11;64.53;102323.31;4432726;32;20546;-73
2020/12/25 07:06:52;;;;;;;6.55;1.15;;;;;;;2.69;64.83;102305.25;4435548;32;20488;-73
2020/12/25 07:09:18;;;;;;;4.65;0.85;;;;;;;2.67;65.26;102304.81;4424517;32;20149;-73
2020/12/25 07:11:49;;;;;;;6.50;0.95;;;;;;;2.72;65.00;102307.34;4438574;32;20387;-73
2020/12/25 07:14:14;;;;;;;5.95;1.12;;;;;;;2.70;64.73;102299.34;4435456;32;20064;-73
2020/12/25 07:16:41;;;;;;;3.50;1.05;;;;;;;2.69;64.93;102300.50;4434316;32;20073;-72
2020/12/25 07:19:06;;;;;;;3.72;1.30;;;;;;;2.66;64.98;102301.22;4435945;32;20025;-73
2020/12/25 07:21:33;;;;;;;3.03;1.12;;;;;;;2.68;65.11;102303.63;4436087;32;20116;-73
2020/12/25 07:23:59;;;;;;;4.87;1.27;;;;;;;2.71;65.11;102306.53;4439808;32;20112;-73
2020/12/25 07:26:25;;;;;;;7.53;1.00;;;;;;;2.72;64.85;102305.38;4438527;32;20068;-73
2020/12/25 07:28:52;;;;;;;4.55;1.10;;;;;;;2.74;64.61;102291.13;4433803;32;20073;-73
2020/12/25 07:31:19;;;;;;;10.50;1.50;;;;;;;2.79;64.15;102293.69;4432342;32;20077;-73
2020/12/25 07:33:53;;;;;;;3.25;1.10;;;;;;;2.83;64.07;102291.81;4418213;32;21210;-73
2020/12/25 07:36:19;;;;;;;1.77;0.60;;;;;;;2.86;64.43;102293.91;4422278;32;20114;-73
2020/12/25 07:38:45;;;;;;;3.72;0.80;;;;;;;2.78;64.64;102289.28;4421851;32;20050;-73
2020/12/25 07:41:10;;;;;;;6.75;1.10;;;;;;;2.74;64.51;102285.56;4418158;32;20090;-73
2020/12/25 07:43:36;;;;;;;3.87;1.33;;;;;;;2.78;64.86;102298.44;4412276;32;20060;-73
2020/12/25 07:46:02;;;;;;;3.83;1.00;;;;;;;2.77;65.01;102293.22;4422812;32;20045;-73
2020/12/25 07:48:28;;;;;;;6.95;1.50;;;;;;;2.78;64.90;102283.72;4420935;32;20089;-73
2020/12/25 07:50:55;;;;;;;3.87;1.15;;;;;;;2.81;64.06;102294.94;4425718;32;20041;-73
2020/12/25 07:53:21;;;;;;;5.70;1.52;;;;;;;2.79;64.00;102302.03;4421855;32;20050;-73
2020/12/25 07:55:47;;;;;;;5.53;1.50;;;;;;;2.87;64.31;102293.56;4420196;32;20124;-73
2020/12/25 07:58:18;;;;;;;8.80;2.03;;;;;;;2.92;64.53;102292.50;4421214;32;20077;-73
2020/12/25 08:00:45;;;;;;;5.55;1.83;;;;;;;2.93;65.24;102297.72;4418261;32;20084;-73
2020/12/25 08:03:12;;;;;;;7.72;1.83;;;;;;;2.96;65.12;102291.47;4423480;32;20025;-73
2020/12/25 08:05:38;;;;;;;6.87;1.92;;;;;;;2.96;64.95;102285.09;4421743;32;20062;-73
2020/12/25 08:08:04;;;;;;;5.57;1.60;;;;;;;3.00;64.53;102281.25;4425975;32;20763;-73
2020/12/25 08:10:34;;;;;;;7.22;1.23;;;;;;;3.04;64.60;102284.16;4420542;32;21202;-73
2020/12/25 08:13:00;;;;;;;4.62;1.27;;;;;;;3.06;64.38;102285.41;4411843;32;20764;-73
2020/12/25 08:15:26;;;;;;;5.10;1.48;;;;;;;3.07;64.29;102281.47;4412920;32;20078;-73
2020/12/25 08:17:54;;;;;;;2.78;1.12;;;;;;;3.10;64.30;102283.53;4409392;32;20094;-73
2020/12/25 08:20:22;;;;;;;2.47;1.05;;;;;;;3.18;64.04;102284.56;4410095;32;20072;-73
2020/12/25 08:22:50;;;;;;;4.47;1.20;;;;;;;3.24;63.35;102280.38;4413494;32;20078;-73
2020/12/25 08:25:17;;;;;;;5.93;1.40;;;;;;;3.22;63.10;102293.88;4410831;32;20038;-73
2020/12/25 08:27:44;;;;;;;5.60;1.50;;;;;;;3.26;62.31;102290.03;4411532;32;20049;-73
2020/12/25 08:30:10;;;;;;;3.60;1.30;;;;;;;3.27;63.10;102296.38;4407039;32;20033;-73
2020/12/25 08:32:36;;;;;;;3.78;1.60;;;;;;;3.32;63.40;102296.16;4411072;32;20195;-73
2020/12/25 08:35:18;;;;;;;7.00;1.85;;;;;;;3.03;62.85;102296.41;4414263;32;20119;-73
2020/12/25 08:37:53;;;;;;;6.22;2.03;;;;;;;3.23;62.67;102301.03;4408832;32;20066;-73
2020/12/25 08:40:18;;;;;;;7.82;4.40;;;;;;;3.28;63.07;102311.94;4411026;32;20077;-73
2020/12/25 08:42:44;;;;;;;10.27;3.00;;;;;;;3.28;63.36;102315.50;4408966;32;20482;-73
2020/12/25 08:45:15;;;;;;;9.40;3.40;;;;;;;3.23;64.02;102317.72;4410813;32;20070;-74
2020/12/25 08:47:41;;;;;;;9.23;3.12;;;;;;;3.15;64.43;102299.19;4413191;32;20063;-73
2020/12/25 08:50:07;;;;;;;9.75;2.85;;;;;;;3.23;64.46;102306.59;4410249;32;20049;-73
2020/12/25 08:52:33;;;;;;;6.18;2.12;;;;;;;3.28;64.02;102304.37;4413859;32;20033;-73
2020/12/25 08:55:00;;;;;;;4.00;1.62;;;;;;;3.32;63.18;102304.50;4414900;32;20577;-73
2020/12/25 08:57:28;;;;;;;3.85;0.98;;;;;;;3.43;62.40;102302.81;4408606;32;20100;-73
2020/12/25 09:00:10;;;;;;;2.25;0.60;;;;;;;3.48;61.74;102308.97;4409023;32;20049;-73
2020/12/25 09:02:36;;;;;;;2.33;0.80;;;;;;;3.54;60.50;102290.87;4409516;32;20034;-73
2020/12/25 09:05:02;;;;;;;5.43;1.02;;;;;;;3.60;60.17;102294.19;4411110;32;20050;-73
2020/12/25 09:07:28;;;;;;;5.93;0.90;;;;;;;3.75;60.39;102294.22;4408442;32;20541;-73
2020/12/25 09:09:53;;;;;;;5.45;2.00;;;;;;;3.82;60.29;102288.88;4398909;32;20130;-73
2020/12/25 09:12:19;;;;;;;6.97;1.80;;;;;;;3.87;60.65;102280.25;4411570;32;20101;-73
2020/12/25 09:14:45;;;;;;;5.50;1.75;;;;;;;3.93;61.00;102283.59;4407898;32;20448;-73
2020/12/25 09:17:10;;;;;;;3.47;1.20;;;;;;;4.01;60.82;102291.78;4410285;32;20056;-73
2020/12/25 09:19:36;;;;;;;8.27;1.45;;;;;;;4.02;60.32;102275.91;4409378;32;20116;-73
2020/12/25 09:22:02;;;;;;;6.95;1.87;;;;;;;4.04;59.11;102274.37;4409259;32;20034;-73
2020/12/25 09:24:27;;;;;;;9.05;2.15;;;;;;;4.11;59.22;102279.31;4406636;32;20101;-73
2020/12/25 09:26:53;;;;;;;4.68;1.80;;;;;;;4.19;59.29;102278.34;4399145;32;20105;-73
2020/12/25 09:29:18;;;;;;;4.47;2.30;;;;;;;4.23;58.70;102279.22;4409571;32;20160;-73
2020/12/25 09:31:44;;;;;;;6.10;2.08;;;;;;;4.34;57.83;102283.12;4408238;32;20553;-73
2020/12/25 09:34:10;;;;;;;5.15;2.00;;;;;;;4.45;57.75;102277.81;4409897;32;20057;-73
2020/12/25 09:36:36;;;;;;;6.28;1.50;;;;;;;4.50;58.24;102286.72;4410587;32;20639;-73
2020/12/25 09:39:02;;;;;;;6.80;2.15;;;;;;;4.55;57.42;102286.44;4412456;32;20049;-73
2020/12/25 09:41:27;;;;;;;4.85;2.03;;;;;;;4.55;56.93;102288.41;4409853;32;20053;-73
2020/12/25 09:43:53;;;;;;;4.43;2.30;;;;;;;4.72;57.29;102297.22;4412248;32;20081;-73
2020/12/25 09:46:18;;;;;;;2.92;1.17;;;;;;;4.80;57.18;102289.81;4410538;32;20042;-73
2020/12/25 09:48:44;;;;;;;2.97;0.73;;;;;;;4.84;56.09;102285.94;4407117;32;20421;-73
2020/12/25 09:51:10;;;;;;;3.90;0.95;;;;;;;5.00;55.12;102292.31;4409038;32;20471;-73
2020/12/25 09:53:35;;;;;;;2.35;1.30;;;;;;;5.09;55.04;102292.13;4409837;32;20437;-73
2020/12/25 09:56:01;;;;;;;3.87;1.40;;;;;;;5.25;54.95;102293.66;4406092;32;20081;-73
2020/12/25 09:58:27;;;;;;;3.67;1.50;;;;;;;5.54;54.39;102292.31;4411950;32;20033;-74
2020/12/25 10:00:53;;;;;;;6.25;2.10;;;;;;;5.74;53.97;102300.31;4405583;32;20110;-73
2020/12/25 10:03:19;;;;;;;5.75;2.15;;;;;;;5.82;53.90;102290.13;4411018;32;20046;-73
2020/12/25 10:05:45;;;;;;;8.10;2.45;;;;;;;5.93;53.65;102291.94;4411748;32;20057;-74
2020/12/25 10:08:11;;;;;;;6.45;2.28;;;;;;;6.07;53.37;102297.00;4409651;32;20050;-74
2020/12/25 10:10:38;;;;;;;11.70;2.20;;;;;;;6.12;53.04;102282.75;4408685;32;20093;-73
2020/12/25 10:13:05;;;;;;;7.25;2.30;;;;;;;6.21;52.60;102291.69;4409151;32;20078;-73
2020/12/25 10:15:31;;;;;;;5.32;1.98;;;;;;;6.24;53.05;102292.94;4410520;32;20034;-73
2020/12/25 10:17:56;;;;;;;5.35;2.50;;;;;;;6.11;51.67;102283.94;4413612;32;20402;-73
2020/12/25 10:20:22;;;;;;;5.20;2.60;;;;;;;6.09;52.35;102298.28;4407996;32;20087;-74
2020/12/25 10:22:48;;;;;;;7.00;2.22;;;;;;;6.23;52.25;102297.72;4408206;32;20081;-73
2020/12/25 10:25:14;;;;;;;7.03;2.37;;;;;;;6.02;52.10;102306.50;4410409;32;20460;-73
2020/12/25 10:27:40;;;;;;;8.93;2.03;;;;;;;6.10;52.25;102304.66;4410035;32;20075;-73
2020/12/25 10:30:06;;;;;;;7.20;2.65;;;;;;;6.24;52.73;102304.13;4407334;32;20409;-73
2020/12/25 10:32:32;;;;;;;5.80;2.80;;;;;;;6.27;53.01;102301.37;4410065;32;20066;-73
2020/12/25 10:34:57;;;;;;;6.53;2.80;;;;;;;6.31;51.91;102301.44;4407645;32;20166;-73
2020/12/25 10:37:23;;;;;;;8.23;2.85;;;;;;;6.48;52.07;102300.97;4410834;32;20077;-73
2020/12/25 10:39:49;;;;;;;5.82;2.67;;;;;;;6.52;52.02;102302.62;4408110;32;20114;-73
2020/12/25 10:42:15;;;;;;;6.12;2.17;;;;;;;6.54;51.75;102293.88;4409431;32;20108;-73
2020/12/25 10:44:40;;;;;;;6.60;2.15;;;;;;;6.55;52.32;102292.69;4409302;32;20200;-73
2020/12/25 10:47:06;;;;;;;3.95;1.77;;;;;;;6.48;51.57;102289.78;4413449;32;20081;-73
2020/12/25 10:49:32;;;;;;;4.65;1.12;;;;;;;6.50;51.69;102299.41;4407057;32;20077;-73
2020/12/25 10:51:58;;;;;;;3.67;1.37;;;;;;;6.15;51.53;102276.41;4411320;32;20138;-73
2020/12/25 10:54:23;;;;;;;5.50;1.30;;;;;;;6.37;51.48;102272.81;4407631;32;20022;-73
2020/12/25 10:56:50;;;;;;;2.92;1.10;;;;;;;6.45;51.69;102274.56;4409000;32;20174;-73
2020/12/25 10:59:16;;;;;;;5.62;1.58;;;;;;;6.53;51.06;102273.47;4409979;32;20529;-73
2020/12/25 11:01:46;;;;;;;5.05;1.55;;;;;;;6.62;50.75;102276.00;4408027;32;20474;-73
2020/12/25 11:04:13;;;;;;;6.62;1.87;;;;;;;6.62;50.83;102276.00;4398330;32;20426;-73
2020/12/25 11:06:39;;;;;;;8.15;2.03;;;;;;;6.65;50.92;102267.69;4408509;32;20068;-73
2020/12/25 11:09:07;;;;;;;5.62;1.98;;;;;;;6.69;51.44;102262.16;4409120;32;20431;-73
2020/12/25 11:11:34;;;;;;;5.78;2.30;;;;;;;6.77;51.65;102263.87;4410890;32;20439;-73
2020/12/25 11:14:02;;;;;;;7.70;2.20;;;;;;;6.75;51.78;102255.84;4396493;32;20064;-73
2020/12/25 11:16:30;;;;;;;6.12;2.10;;;;;;;6.73;51.70;102252.62;4407199;32;20122;-73
2020/12/25 11:18:58;;;;;;;5.97;1.48;;;;;;;6.74;51.12;102253.44;4407572;32;20113;-73
2020/12/25 11:21:26;;;;;;;8.00;1.55;;;;;;;6.81;50.19;102245.94;4407095;32;20064;-73
2020/12/25 11:23:53;;;;;;;5.25;1.60;;;;;;;6.89;49.47;102246.87;4410023;32;20177;-73
2020/12/25 11:28:59;;;;;;;3.60;1.58;;;;;;;7.48;48.26;102252.50;3979553;32;15153190;-73
2020/12/25 11:31:27;;;;;;;4.97;1.62;;;;;;;7.48;48.26;102252.50;4434610;32;20538;-73
2020/12/25 11:33:53;;;;;;;4.07;1.40;;;;;;;7.07;49.23;102245.12;4433543;32;20042;-73
2020/12/25 11:36:21;;;;;;;8.32;1.50;;;;;;;7.08;49.39;102241.16;4428972;32;20084;-73
2020/12/25 11:38:48;;;;;;;7.18;1.30;;;;;;;7.27;49.14;102232.63;4419595;32;20100;-73
2020/12/25 11:41:15;;;;;;;5.43;1.30;;;;;;;7.03;49.06;102230.28;4425755;32;20065;-73
2020/12/25 11:43:41;;;;;;;5.25;1.30;;;;;;;7.02;50.28;102225.84;4425675;32;20126;-73